createdAt,value
2023-02-19T00:00:21.048Z,1.40
2023-02-19T00:01:19.995Z,0.60
2023-02-19T00:02:20.054Z,0.70
2023-02-19T00:03:19.977Z,1.00
2023-02-19T00:04:20.092Z,1.10
2023-02-19T00:05:19.914Z,0.80
2023-02-19T00:06:22.124Z,0.70
2023-02-19T00:07:19.888Z,0.70
2023-02-19T00:08:19.955Z,1.10
2023-02-19T00:09:19.858Z,4.00
2023-02-19T00:10:19.899Z,0.70
2023-02-19T00:11:19.826Z,1.40
2023-02-19T00:12:40.965Z,2.00
2023-02-19T00:13:19.796Z,1.60
2023-02-19T00:14:19.972Z,3.10
2023-02-19T00:15:19.763Z,1.50
2023-02-19T00:16:21.896Z,1.20
2023-02-19T00:17:19.743Z,1.00
2023-02-19T00:18:19.884Z,0.90
2023-02-19T00:19:19.731Z,0.90
2023-02-19T00:20:19.777Z,0.60
2023-02-19T00:21:19.702Z,3.00
2023-02-19T00:22:19.806Z,1.20
2023-02-19T00:23:19.665Z,2.50
2023-02-19T00:24:19.796Z,2.00
2023-02-19T00:25:19.614Z,1.30
2023-02-19T00:26:40.762Z,2.20
2023-02-19T00:27:19.603Z,2.40
2023-02-19T00:29:29.196Z,1.10
2023-02-19T00:30:29.006Z,1.50
2023-02-19T00:31:32.989Z,1.90
2023-02-19T00:32:28.956Z,1.50
2023-02-19T00:33:29.068Z,1.00
2023-02-19T00:34:28.928Z,3.50
2023-02-19T00:35:29.048Z,1.80
2023-02-19T00:36:28.908Z,1.00
2023-02-19T00:37:29.039Z,2.80
2023-02-19T00:38:28.880Z,1.50
2023-02-19T00:39:29.069Z,1.50
2023-02-19T00:40:28.859Z,0.70
2023-02-19T00:41:28.973Z,1.10
2023-02-19T00:42:28.829Z,1.50
2023-02-19T00:43:28.939Z,0.70
2023-02-19T00:44:28.812Z,3.10
2023-02-19T00:45:30.980Z,3.60
2023-02-19T00:46:28.845Z,5.30
2023-02-19T00:47:28.969Z,3.60
2023-02-19T00:48:28.754Z,3.80
2023-02-19T00:49:29.002Z,1.90
2023-02-19T00:50:28.778Z,1.10
2023-02-19T00:51:28.801Z,1.40
2023-02-19T00:52:28.698Z,1.80
2023-02-19T00:53:28.796Z,1.10
2023-02-19T00:54:28.686Z,0.50
2023-02-19T00:55:29.137Z,0.50
2023-02-19T00:56:28.699Z,0.60
2023-02-19T00:57:29.875Z,0.40
2023-02-19T00:58:28.619Z,0.40
2023-02-19T00:59:28.681Z,0.80
2023-02-19T01:00:28.590Z,0.80
2023-02-19T01:01:28.696Z,0.40
2023-02-19T01:02:28.563Z,1.00
2023-02-19T01:03:50.698Z,0.60
2023-02-19T01:04:28.624Z,1.80
2023-02-19T01:05:28.679Z,1.20
2023-02-19T01:06:28.508Z,0.50
2023-02-19T01:07:28.661Z,1.70
2023-02-19T01:08:28.498Z,0.60
2023-02-19T01:09:29.518Z,0.40
2023-02-19T01:10:28.447Z,1.00
2023-02-19T01:11:28.587Z,0.50
2023-02-19T01:12:28.429Z,0.60
2023-02-19T01:13:28.571Z,0.40
2023-02-19T01:14:28.396Z,0.80
2023-02-19T01:15:28.506Z,0.40
2023-02-19T01:16:28.522Z,1.20
2023-02-19T01:17:28.488Z,1.30
2023-02-19T01:18:28.440Z,0.90
2023-02-19T01:19:28.481Z,1.70
2023-02-19T01:20:28.315Z,0.50
2023-02-19T01:21:28.416Z,0.60
2023-02-19T01:22:28.306Z,0.70
2023-02-19T01:23:28.396Z,0.90
2023-02-19T01:24:28.265Z,0.60
2023-02-19T01:25:28.382Z,0.80
2023-02-19T01:26:28.235Z,0.60
2023-02-19T01:27:28.305Z,0.90
2023-02-19T01:28:28.205Z,1.50
2023-02-19T01:29:28.306Z,0.50
2023-02-19T01:30:28.220Z,0.80
2023-02-19T01:31:28.389Z,0.60
2023-02-19T01:32:28.169Z,1.30
2023-02-19T01:33:30.315Z,0.70
2023-02-19T01:34:28.141Z,0.40
2023-02-19T01:35:28.205Z,0.90
2023-02-19T01:36:28.140Z,0.80
2023-02-19T01:37:29.206Z,0.70
2023-02-19T01:38:28.093Z,0.50
2023-02-19T01:39:28.235Z,2.00
2023-02-19T01:40:28.059Z,1.70
2023-02-19T01:41:28.219Z,0.90
2023-02-19T01:42:28.027Z,0.70
2023-02-19T01:43:28.199Z,0.90
2023-02-19T01:44:28.001Z,0.30
2023-02-19T01:45:28.030Z,0.60
2023-02-19T01:46:28.026Z,0.70
2023-02-19T01:47:28.119Z,0.40
2023-02-19T01:48:27.951Z,0.40
2023-02-19T01:49:28.115Z,0.60
2023-02-19T01:50:27.918Z,0.80
2023-02-19T01:51:28.036Z,1.10
2023-02-19T01:52:27.888Z,0.30
2023-02-19T01:53:28.025Z,1.40
2023-02-19T01:54:27.879Z,1.00
2023-02-19T01:55:27.908Z,0.80
2023-02-19T01:56:27.844Z,0.40
2023-02-19T01:57:27.952Z,2.20
2023-02-19T01:58:27.822Z,0.70
2023-02-19T01:59:27.928Z,1.40
2023-02-19T02:00:27.859Z,0.50
2023-02-19T02:01:30.025Z,0.80
2023-02-19T02:02:27.758Z,1.00
2023-02-19T02:03:27.849Z,0.40
2023-02-19T02:04:27.748Z,0.80
2023-02-19T02:05:28.861Z,0.40
2023-02-19T02:06:27.711Z,0.90
2023-02-19T02:08:36.487Z,0.60
2023-02-19T02:09:36.378Z,0.70
2023-02-19T02:10:39.639Z,1.10
2023-02-19T02:11:36.362Z,1.00
2023-02-19T02:12:36.462Z,0.30
2023-02-19T02:13:36.329Z,0.90
2023-02-19T02:14:36.499Z,0.50
2023-02-19T02:15:36.300Z,0.70
2023-02-19T02:16:37.515Z,0.30
2023-02-19T02:17:36.284Z,1.70
2023-02-19T02:18:36.361Z,0.40
2023-02-19T02:19:36.257Z,1.30
2023-02-19T02:20:36.301Z,1.70
2023-02-19T02:21:36.233Z,0.40
2023-02-19T02:22:37.315Z,0.30
2023-02-19T02:23:36.205Z,1.00
2023-02-19T02:24:36.375Z,0.60
2023-02-19T02:25:36.172Z,0.40
2023-02-19T02:26:38.403Z,0.50
2023-02-19T02:27:36.151Z,0.30
2023-02-19T02:28:36.294Z,0.90
2023-02-19T02:29:36.116Z,0.90
2023-02-19T02:30:36.186Z,0.60
2023-02-19T02:31:36.201Z,0.40
2023-02-19T02:32:36.212Z,1.20
2023-02-19T02:33:36.145Z,1.20
2023-02-19T02:34:36.217Z,0.50
2023-02-19T02:35:36.036Z,1.70
2023-02-19T02:36:36.105Z,0.70
2023-02-19T02:37:36.020Z,0.40
2023-02-19T02:38:36.137Z,1.30
2023-02-19T02:39:35.987Z,0.60
2023-02-19T02:40:36.122Z,0.90
2023-02-19T02:41:35.963Z,0.70
2023-02-19T02:42:36.093Z,0.60
2023-02-19T02:43:35.948Z,1.90
2023-02-19T02:44:57.108Z,0.90
2023-02-19T02:45:36.043Z,0.70
2023-02-19T02:46:36.020Z,0.80
2023-02-19T02:47:35.878Z,0.60
2023-02-19T02:48:35.996Z,1.70
2023-02-19T02:49:35.852Z,1.10
2023-02-19T02:50:38.029Z,0.50
2023-02-19T02:51:35.826Z,0.80
2023-02-19T02:52:36.942Z,0.40
2023-02-19T02:53:35.808Z,5.10
2023-02-19T02:54:36.001Z,0.30
2023-02-19T02:55:35.775Z,0.50
2023-02-19T02:56:35.852Z,1.20
2023-02-19T02:57:35.753Z,2.80
2023-02-19T02:58:35.828Z,0.40
2023-02-19T02:59:35.720Z,1.00
2023-02-19T03:00:35.806Z,0.40
2023-02-19T03:01:35.693Z,0.20
2023-02-19T03:02:35.842Z,0.20
2023-02-19T03:03:35.667Z,1.70
2023-02-19T03:04:35.782Z,0.80
2023-02-19T03:05:35.644Z,0.30
2023-02-19T03:06:35.717Z,0.60
2023-02-19T03:07:35.613Z,0.40
2023-02-19T03:08:36.789Z,1.00
2023-02-19T03:09:35.590Z,0.30
2023-02-19T03:10:35.737Z,0.80
2023-02-19T03:11:35.562Z,1.10
2023-02-19T03:12:36.746Z,1.20
2023-02-19T03:13:35.534Z,1.10
2023-02-19T03:14:36.574Z,1.00
2023-02-19T03:15:35.502Z,0.80
2023-02-19T03:16:35.703Z,1.40
2023-02-19T03:17:35.484Z,2.00
2023-02-19T03:18:35.623Z,0.60
2023-02-19T03:19:35.462Z,0.30
2023-02-19T03:21:44.326Z,1.50
2023-02-19T03:22:44.111Z,1.10
2023-02-19T03:23:44.261Z,0.50
2023-02-19T03:24:44.097Z,1.30
2023-02-19T03:25:44.192Z,0.90
2023-02-19T03:26:44.074Z,0.80
2023-02-19T03:27:45.201Z,0.60
2023-02-19T03:28:44.037Z,0.50
2023-02-19T03:29:44.167Z,1.40
2023-02-19T03:30:44.012Z,0.30
2023-02-19T03:31:44.249Z,0.80
2023-02-19T03:32:43.979Z,0.40
2023-02-19T03:33:47.366Z,0.30
2023-02-19T03:34:43.961Z,0.60
2023-02-19T03:35:44.071Z,1.80
2023-02-19T03:36:43.995Z,2.00
2023-02-19T03:37:44.004Z,0.40
2023-02-19T03:38:43.907Z,0.70
2023-02-19T03:39:47.158Z,0.30
2023-02-19T03:40:43.882Z,0.80
2023-02-19T03:41:43.976Z,1.00
2023-02-19T03:42:43.843Z,0.60
2023-02-19T03:43:44.018Z,0.20
2023-02-19T03:44:43.810Z,0.30
2023-02-19T03:45:45.037Z,0.30
2023-02-19T03:46:43.791Z,0.50
2023-02-19T03:47:43.880Z,0.30
2023-02-19T03:48:43.769Z,1.50
2023-02-19T03:49:43.909Z,1.40
2023-02-19T03:50:43.737Z,0.60
2023-02-19T03:51:43.893Z,1.00
2023-02-19T03:52:43.709Z,0.40
2023-02-19T03:53:43.960Z,0.50
2023-02-19T03:54:43.681Z,0.60
2023-02-19T03:55:43.726Z,0.50
2023-02-19T03:56:43.661Z,0.30
2023-02-19T03:57:44.732Z,0.30
2023-02-19T03:58:43.639Z,0.60
2023-02-19T03:59:43.722Z,0.60
2023-02-19T04:00:43.607Z,0.70
2023-02-19T04:01:43.727Z,0.50
2023-02-19T04:02:43.575Z,0.40
2023-02-19T04:03:45.764Z,1.10
2023-02-19T04:04:43.573Z,0.50
2023-02-19T04:05:43.595Z,0.50
2023-02-19T04:06:43.538Z,0.40
2023-02-19T04:07:43.635Z,2.00
2023-02-19T04:08:43.506Z,0.70
2023-02-19T04:09:46.791Z,1.40
2023-02-19T04:10:43.487Z,2.00
2023-02-19T04:11:43.605Z,1.40
2023-02-19T04:12:43.456Z,0.50
2023-02-19T04:13:43.647Z,1.10
2023-02-19T04:14:43.417Z,1.90
2023-02-19T04:15:43.530Z,0.80
2023-02-19T04:16:43.490Z,1.00
2023-02-19T04:17:43.521Z,0.70
2023-02-19T04:18:43.374Z,0.90
2023-02-19T04:19:43.449Z,0.60
2023-02-19T04:20:43.342Z,1.40
2023-02-19T04:21:43.548Z,1.10
2023-02-19T04:22:43.307Z,0.70
2023-02-19T04:23:43.419Z,1.00
2023-02-19T04:24:43.295Z,0.90
2023-02-19T04:25:43.358Z,1.10
2023-02-19T04:26:43.266Z,2.10
2023-02-19T04:27:43.336Z,0.60
2023-02-19T04:28:43.237Z,0.90
2023-02-19T04:29:43.323Z,0.60
2023-02-19T04:30:43.468Z,0.90
2023-02-19T04:31:43.367Z,1.60
2023-02-19T04:32:43.179Z,0.70
2023-02-19T04:33:43.242Z,0.60
2023-02-19T04:34:43.155Z,0.50
2023-02-19T04:35:43.222Z,0.80
2023-02-19T04:36:43.136Z,4.80
2023-02-19T04:37:43.262Z,0.80
2023-02-19T04:38:43.095Z,0.80
2023-02-19T04:39:44.271Z,0.60
2023-02-19T04:40:43.074Z,0.50
2023-02-19T04:41:43.134Z,1.20
2023-02-19T04:42:43.041Z,0.70
2023-02-19T04:43:43.178Z,0.60
2023-02-19T04:44:43.010Z,0.70
2023-02-19T04:45:45.102Z,0.80
2023-02-19T04:46:43.285Z,0.90
2023-02-19T04:47:43.130Z,0.70
2023-02-19T04:48:42.959Z,0.70
2023-02-19T04:49:43.070Z,1.50
2023-02-19T04:50:42.934Z,0.90
2023-02-19T04:51:43.068Z,0.90
2023-02-19T04:52:42.921Z,1.00
2023-02-19T04:53:43.040Z,1.10
2023-02-19T04:54:42.881Z,1.20
2023-02-19T04:55:42.971Z,1.60
2023-02-19T04:56:42.857Z,0.80
2023-02-19T04:57:43.988Z,1.20
2023-02-19T04:58:42.830Z,1.30
2023-02-19T04:59:42.945Z,1.80
2023-02-19T05:00:42.807Z,1.80
2023-02-19T05:01:43.959Z,0.70
2023-02-19T05:02:42.771Z,1.30
2023-02-19T05:03:42.871Z,1.60
2023-02-19T05:04:42.782Z,2.00
2023-02-19T05:05:42.853Z,0.80
2023-02-19T05:06:42.721Z,1.40
2023-02-19T05:07:42.900Z,1.10
2023-02-19T05:08:42.691Z,1.40
2023-02-19T05:09:42.777Z,3.10
2023-02-19T05:10:42.669Z,1.10
2023-02-19T05:11:42.761Z,2.70
2023-02-19T05:12:42.639Z,0.90
2023-02-19T05:13:44.821Z,1.00
2023-02-19T05:14:42.612Z,1.30
2023-02-19T05:15:42.821Z,1.40
2023-02-19T05:16:42.581Z,1.20
2023-02-19T05:17:42.761Z,1.20
2023-02-19T05:18:42.584Z,1.90
2023-02-19T05:20:05.771Z,1.50
2023-02-19T05:20:42.530Z,1.20
2023-02-19T05:21:42.532Z,1.40
2023-02-19T05:22:42.706Z,1.50
2023-02-19T05:23:42.515Z,1.10
2023-02-19T05:25:52.022Z,0.80
2023-02-19T05:26:51.827Z,1.00
2023-02-19T05:27:52.978Z,1.20
2023-02-19T05:28:51.783Z,1.50
2023-02-19T05:30:12.871Z,1.80
2023-02-19T05:30:51.811Z,1.10
2023-02-19T05:31:51.944Z,1.80
2023-02-19T05:32:51.943Z,1.50
2023-02-19T05:33:51.913Z,2.10
2023-02-19T05:34:51.865Z,1.80
2023-02-19T05:35:51.690Z,1.90
2023-02-19T05:36:51.780Z,2.20
2023-02-19T05:37:51.668Z,2.40
2023-02-19T05:38:51.858Z,2.10
2023-02-19T05:39:51.637Z,4.00
2023-02-19T05:40:51.766Z,2.50
2023-02-19T05:41:51.606Z,1.80
2023-02-19T05:42:51.672Z,3.10
2023-02-19T05:43:51.584Z,1.80
2023-02-19T05:44:51.662Z,2.10
2023-02-19T05:45:51.572Z,2.10
2023-02-19T05:46:53.727Z,1.90
2023-02-19T05:47:51.524Z,3.10
2023-02-19T05:48:52.697Z,1.90
2023-02-19T05:49:51.504Z,1.50
2023-02-19T05:50:51.656Z,2.30
2023-02-19T05:51:51.477Z,2.70
2023-02-19T05:52:53.641Z,2.00
2023-02-19T05:53:51.478Z,1.80
2023-02-19T05:54:51.574Z,1.90
2023-02-19T05:55:51.495Z,2.00
2023-02-19T05:56:51.574Z,1.90
2023-02-19T05:57:51.404Z,5.90
2023-02-19T05:58:51.545Z,2.30
2023-02-19T05:59:51.383Z,2.70
2023-02-19T06:00:51.484Z,2.20
2023-02-19T06:01:51.349Z,1.70
2023-02-19T06:02:51.493Z,2.10
2023-02-19T06:03:51.370Z,2.40
2023-02-19T06:04:52.395Z,2.10
2023-02-19T06:05:51.294Z,3.00
2023-02-19T06:06:51.385Z,2.70
2023-02-19T06:07:51.276Z,2.30
2023-02-19T06:08:51.477Z,2.00
2023-02-19T06:09:51.254Z,1.80
2023-02-19T06:10:52.278Z,2.40
2023-02-19T06:11:51.218Z,2.00
2023-02-19T06:12:51.317Z,2.70
2023-02-19T06:13:51.211Z,2.10
2023-02-19T06:14:52.308Z,3.50
2023-02-19T06:15:51.185Z,2.10
2023-02-19T06:16:51.263Z,2.60
2023-02-19T06:17:51.143Z,3.90
2023-02-19T06:18:51.310Z,2.90
2023-02-19T06:19:51.117Z,2.20
2023-02-19T06:20:53.238Z,2.50
2023-02-19T06:21:51.086Z,2.20
2023-02-19T06:22:51.201Z,1.80
2023-02-19T06:23:51.066Z,2.00
2023-02-19T06:24:51.213Z,2.90
2023-02-19T06:25:51.041Z,2.70
2023-02-19T06:26:51.202Z,2.10
2023-02-19T06:27:51.009Z,2.10
2023-02-19T06:28:51.102Z,4.50
2023-02-19T06:29:50.984Z,2.00
2023-02-19T06:30:51.613Z,2.80
2023-02-19T06:31:51.096Z,3.00
2023-02-19T06:32:54.297Z,2.10
2023-02-19T06:33:51.023Z,2.50
2023-02-19T06:34:51.094Z,2.70
2023-02-19T06:35:50.924Z,2.00
2023-02-19T06:36:52.056Z,2.50
2023-02-19T06:37:50.881Z,2.30
2023-02-19T06:38:51.021Z,5.20
2023-02-19T06:39:50.854Z,2.30
2023-02-19T06:40:51.000Z,3.80
2023-02-19T06:41:50.840Z,3.20
2023-02-19T06:42:50.932Z,4.90
2023-02-19T06:43:50.804Z,2.50
2023-02-19T06:44:50.911Z,4.10
2023-02-19T06:45:50.822Z,3.60
2023-02-19T06:46:50.908Z,3.80
2023-02-19T06:47:50.747Z,2.20
2023-02-19T06:48:51.874Z,2.80
2023-02-19T06:49:50.725Z,3.00
2023-02-19T06:50:50.824Z,2.50
2023-02-19T06:51:50.704Z,6.90
2023-02-19T06:52:50.813Z,17.10
2023-02-19T06:53:50.676Z,26.60
2023-02-19T06:54:50.842Z,18.70
2023-02-19T06:55:50.643Z,10.00
2023-02-19T06:56:50.744Z,4.60
2023-02-19T06:57:50.621Z,3.90
2023-02-19T06:58:50.721Z,9.40
2023-02-19T06:59:50.592Z,8.00
2023-02-19T07:00:50.716Z,3.70
2023-02-19T07:01:50.592Z,4.10
2023-02-19T07:02:50.763Z,5.10
2023-02-19T07:03:50.567Z,5.50
2023-02-19T07:04:50.731Z,3.80
2023-02-19T07:05:50.514Z,3.20
2023-02-19T07:06:50.555Z,4.00
2023-02-19T07:07:50.483Z,4.40
2023-02-19T07:08:50.646Z,3.30
2023-02-19T07:09:50.449Z,4.00
2023-02-19T07:10:50.634Z,5.00
2023-02-19T07:11:50.444Z,4.80
2023-02-19T07:12:51.594Z,2.50
2023-02-19T07:13:50.407Z,4.10
2023-02-19T07:14:50.559Z,5.60
2023-02-19T07:15:52.090Z,2.10
2023-02-19T07:16:50.426Z,2.20
2023-02-19T07:17:50.457Z,2.80
2023-02-19T07:18:51.504Z,3.90
2023-02-19T07:19:50.337Z,2.90
2023-02-19T07:20:50.456Z,3.10
2023-02-19T07:21:50.336Z,4.50
2023-02-19T07:22:50.450Z,2.60
2023-02-19T07:23:50.276Z,1.80
2023-02-19T07:24:51.289Z,2.50
2023-02-19T07:25:50.249Z,2.20
2023-02-19T07:26:50.367Z,2.30
2023-02-19T07:27:50.234Z,2.10
2023-02-19T07:28:50.343Z,2.00
2023-02-19T07:29:50.206Z,2.90
2023-02-19T07:30:50.300Z,1.60
2023-02-19T07:31:50.221Z,2.70
2023-02-19T07:32:50.382Z,1.90
2023-02-19T07:33:50.218Z,1.80
2023-02-19T07:34:50.237Z,1.60
2023-02-19T07:35:50.114Z,2.10
2023-02-19T07:36:50.180Z,1.40
2023-02-19T07:37:50.088Z,1.70
2023-02-19T07:38:50.258Z,1.10
2023-02-19T07:39:50.060Z,1.10
2023-02-19T07:40:50.150Z,3.20
2023-02-19T07:41:50.081Z,1.60
2023-02-19T07:42:50.089Z,1.00
2023-02-19T07:43:50.010Z,2.10
2023-02-19T07:44:50.080Z,2.10
2023-02-19T07:45:50.042Z,2.30
2023-02-19T07:46:50.059Z,1.60
2023-02-19T07:47:49.968Z,0.90
2023-02-19T07:48:50.091Z,2.00
2023-02-19T07:49:49.930Z,1.50
2023-02-19T07:50:50.080Z,2.80
2023-02-19T07:51:49.910Z,1.20
2023-02-19T07:52:49.991Z,1.60
2023-02-19T07:53:49.900Z,1.10
2023-02-19T07:54:50.017Z,2.00
2023-02-19T07:55:49.882Z,0.80
2023-02-19T07:56:50.000Z,1.80
2023-02-19T07:57:49.840Z,1.00
2023-02-19T07:58:49.973Z,1.00
2023-02-19T07:59:49.803Z,1.00
2023-02-19T08:00:50.031Z,1.20
2023-02-19T08:01:49.786Z,0.80
2023-02-19T08:02:49.902Z,1.80
2023-02-19T08:03:50.594Z,1.80
2023-02-19T08:04:49.963Z,1.10
2023-02-19T08:05:49.728Z,1.10
2023-02-19T08:06:49.879Z,1.10
2023-02-19T08:07:49.692Z,1.20
2023-02-19T08:08:49.944Z,1.40
2023-02-19T08:09:49.663Z,0.70
2023-02-19T08:10:49.685Z,0.80
2023-02-19T08:11:49.653Z,1.70
2023-02-19T08:12:49.720Z,0.90
2023-02-19T08:13:49.622Z,0.60
2023-02-19T08:14:49.701Z,0.70
2023-02-19T08:15:49.591Z,1.10
2023-02-19T08:16:49.652Z,0.50
2023-02-19T08:17:49.576Z,1.00
2023-02-19T08:18:49.777Z,0.50
2023-02-19T08:19:49.530Z,0.60
2023-02-19T08:20:49.612Z,0.50
2023-02-19T08:21:49.502Z,0.30
2023-02-19T08:22:49.603Z,0.90
2023-02-19T08:23:51.205Z,0.70
2023-02-19T08:24:49.622Z,1.50
2023-02-19T08:25:49.458Z,0.40
2023-02-19T08:26:49.610Z,0.30
2023-02-19T08:27:49.431Z,0.50
2023-02-19T08:28:49.710Z,0.50
2023-02-19T08:29:49.404Z,0.50
2023-02-19T08:30:49.483Z,0.30
2023-02-19T08:31:49.685Z,0.70
2023-02-19T08:32:49.859Z,1.20
2023-02-19T08:33:49.368Z,0.50
2023-02-19T08:35:11.531Z,0.40
2023-02-19T08:35:49.330Z,0.70
2023-02-19T08:36:49.472Z,0.80
2023-02-19T08:37:49.304Z,0.90
2023-02-19T08:38:50.353Z,0.50
2023-02-19T08:39:49.270Z,1.30
2023-02-19T08:40:49.341Z,1.50
2023-02-19T08:41:49.305Z,0.40
2023-02-19T08:42:50.370Z,1.10
2023-02-19T08:43:49.222Z,0.70
2023-02-19T08:44:49.704Z,1.50
2023-02-19T08:45:49.198Z,0.70
2023-02-19T08:46:49.212Z,1.00
2023-02-19T08:47:49.159Z,1.40
2023-02-19T08:48:49.249Z,1.30
2023-02-19T08:49:49.129Z,0.80
2023-02-19T08:50:49.236Z,0.60
2023-02-19T08:51:49.106Z,1.40
2023-02-19T08:52:49.222Z,1.50
2023-02-19T08:53:49.078Z,0.80
2023-02-19T08:54:49.257Z,1.20
2023-02-19T08:55:49.053Z,0.60
2023-02-19T08:56:49.283Z,0.50
2023-02-19T08:57:50.590Z,1.10
2023-02-19T08:58:49.138Z,0.60
2023-02-19T08:59:48.998Z,1.50
2023-02-19T09:01:10.591Z,0.70
2023-02-19T09:01:48.976Z,0.90
2023-02-19T09:02:49.154Z,1.50
2023-02-19T09:03:48.947Z,0.30
2023-02-19T09:04:49.035Z,0.70
2023-02-19T09:05:48.921Z,1.00
2023-02-19T09:07:10.101Z,0.40
2023-02-19T09:07:48.893Z,0.70
2023-02-19T09:08:49.968Z,1.50
2023-02-19T09:09:48.867Z,0.70
2023-02-19T09:10:48.937Z,1.00
2023-02-19T09:11:49.389Z,1.10
2023-02-19T09:12:48.965Z,1.20
2023-02-19T09:13:48.817Z,0.20
2023-02-19T09:14:49.146Z,0.70
2023-02-19T09:15:48.798Z,0.40
2023-02-19T09:16:48.816Z,0.70
2023-02-19T09:17:48.757Z,1.00
2023-02-19T09:18:48.878Z,2.20
2023-02-19T09:19:50.795Z,0.80
2023-02-19T09:20:48.881Z,0.70
2023-02-19T09:21:48.709Z,1.00
2023-02-19T09:22:48.859Z,1.30
2023-02-19T09:23:48.681Z,0.70
2023-02-19T09:24:48.779Z,0.50
2023-02-19T09:25:48.662Z,0.80
2023-02-19T09:26:48.771Z,0.80
2023-02-19T09:27:48.641Z,0.90
2023-02-19T09:28:48.751Z,0.70
2023-02-19T09:29:48.610Z,0.40
2023-02-19T09:30:48.659Z,1.00
2023-02-19T09:31:48.706Z,1.00
2023-02-19T09:32:48.782Z,0.90
2023-02-19T09:33:48.558Z,0.50
2023-02-19T09:34:48.662Z,0.70
2023-02-19T09:35:48.522Z,2.50
2023-02-19T09:36:50.694Z,0.50
2023-02-19T09:37:48.492Z,0.80
2023-02-19T09:38:48.586Z,1.20
2023-02-19T09:39:48.478Z,1.10
2023-02-19T09:40:48.664Z,0.50
2023-02-19T09:41:48.452Z,0.60
2023-02-19T09:42:48.747Z,0.70
2023-02-19T09:43:48.413Z,0.40
2023-02-19T09:44:48.517Z,0.70
2023-02-19T09:45:48.393Z,1.40
2023-02-19T09:46:48.434Z,0.80
2023-02-19T09:47:48.381Z,0.70
2023-02-19T09:48:50.504Z,0.50
2023-02-19T09:49:48.343Z,1.10
2023-02-19T09:50:48.503Z,1.20
2023-02-19T09:51:48.303Z,1.20
2023-02-19T09:52:49.406Z,1.00
2023-02-19T09:53:48.282Z,0.90
2023-02-19T09:54:48.710Z,1.00
2023-02-19T09:55:48.276Z,0.70
2023-02-19T09:56:48.436Z,1.50
2023-02-19T09:57:48.234Z,0.70
2023-02-19T09:58:48.412Z,1.00
2023-02-19T09:59:48.203Z,0.60
2023-02-19T10:01:11.790Z,0.50
2023-02-19T10:01:48.217Z,2.70
2023-02-19T10:02:48.314Z,0.40
2023-02-19T10:03:48.166Z,1.70
2023-02-19T10:04:48.310Z,0.70
2023-02-19T10:05:48.130Z,1.40
2023-02-19T10:06:48.229Z,0.90
2023-02-19T10:07:48.107Z,1.40
2023-02-19T10:08:48.208Z,0.90
2023-02-19T10:09:48.070Z,3.30
2023-02-19T10:11:09.581Z,0.40
2023-02-19T10:11:48.039Z,0.60
2023-02-19T10:12:48.122Z,0.80
2023-02-19T10:13:48.029Z,1.00
2023-02-19T10:14:48.059Z,0.30
2023-02-19T10:15:48.019Z,0.50
2023-02-19T10:16:48.020Z,0.50
2023-02-19T10:17:47.983Z,0.50
2023-02-19T10:18:48.172Z,0.40
2023-02-19T10:19:47.948Z,0.20
2023-02-19T10:20:48.024Z,0.50
2023-02-19T10:21:47.909Z,0.30
2023-02-19T10:22:49.111Z,0.30
2023-02-19T10:23:47.879Z,0.30
2023-02-19T10:24:48.041Z,0.30
2023-02-19T10:25:47.849Z,0.70
2023-02-19T10:26:48.020Z,0.70
2023-02-19T10:27:47.840Z,1.50
2023-02-19T10:28:48.019Z,0.50
2023-02-19T10:29:47.799Z,0.40
2023-02-19T10:30:47.878Z,0.30
2023-02-19T10:31:47.874Z,0.70
2023-02-19T10:32:51.103Z,0.90
2023-02-19T10:33:47.772Z,0.20
2023-02-19T10:35:09.818Z,0.40
2023-02-19T10:35:47.731Z,0.50
2023-02-19T10:36:47.711Z,0.30
2023-02-19T10:37:47.830Z,1.90
2023-02-19T10:38:47.701Z,1.70
2023-02-19T10:39:47.892Z,0.60
2023-02-19T10:40:47.660Z,0.30
2023-02-19T10:41:47.801Z,1.90
2023-02-19T10:42:47.637Z,0.20
2023-02-19T10:43:47.732Z,1.40
2023-02-19T10:44:47.612Z,0.50
2023-02-19T10:45:47.680Z,1.10
2023-02-19T10:46:47.627Z,0.90
2023-02-19T10:47:47.712Z,0.10
2023-02-19T10:48:47.552Z,0.30
2023-02-19T10:49:47.653Z,0.30
2023-02-19T10:50:47.543Z,0.50
2023-02-19T10:51:49.754Z,0.60
2023-02-19T10:52:47.491Z,0.50
2023-02-19T10:53:47.613Z,0.90
2023-02-19T10:54:47.472Z,0.30
2023-02-19T10:55:47.541Z,0.30
2023-02-19T10:56:47.547Z,0.60
2023-02-19T10:57:47.576Z,0.10
2023-02-19T10:58:47.431Z,0.30
2023-02-19T10:59:47.620Z,0.20
2023-02-19T11:00:47.416Z,0.50
2023-02-19T11:01:47.472Z,0.10
2023-02-19T11:02:47.390Z,0.70
2023-02-19T11:03:47.484Z,0.40
2023-02-19T11:04:47.403Z,2.00
2023-02-19T11:05:47.410Z,0.60
2023-02-19T11:06:47.313Z,0.30
2023-02-19T11:07:47.444Z,0.20
2023-02-19T11:08:47.312Z,1.10
2023-02-19T11:09:48.415Z,2.50
2023-02-19T11:10:47.262Z,4.30
2023-02-19T11:11:47.311Z,0.80
2023-02-19T11:12:47.250Z,1.70
2023-02-19T11:14:08.282Z,1.20
2023-02-19T11:14:47.201Z,0.30
2023-02-19T11:15:47.306Z,1.20
2023-02-19T11:16:47.178Z,1.10
2023-02-19T11:17:47.324Z,0.60
2023-02-19T11:18:47.152Z,0.50
2023-02-19T11:19:47.313Z,1.00
2023-02-19T11:20:47.124Z,1.30
2023-02-19T11:21:47.192Z,0.40
2023-02-19T11:22:47.092Z,1.40
2023-02-19T11:23:47.250Z,1.10
2023-02-19T11:24:47.063Z,1.40
2023-02-19T11:25:50.398Z,0.70
2023-02-19T11:26:47.044Z,0.30
2023-02-19T11:27:47.204Z,0.50
2023-02-19T11:28:47.033Z,0.40
2023-02-19T11:29:47.161Z,0.80
2023-02-19T11:30:46.986Z,0.30
2023-02-19T11:31:48.208Z,0.70
2023-02-19T11:32:46.974Z,0.10
2023-02-19T11:33:47.141Z,0.20
2023-02-19T11:34:46.935Z,0.40
2023-02-19T11:35:47.036Z,0.30
2023-02-19T11:36:46.925Z,0.20
2023-02-19T11:37:47.046Z,0.30
2023-02-19T11:38:46.877Z,1.30
2023-02-19T11:39:47.036Z,0.20
2023-02-19T11:40:46.865Z,0.90
2023-02-19T11:41:46.972Z,0.20
2023-02-19T11:42:46.843Z,0.50
2023-02-19T11:43:46.940Z,1.00
2023-02-19T11:44:46.817Z,0.60
2023-02-19T11:45:46.926Z,0.80
2023-02-19T11:46:46.973Z,0.50
2023-02-19T11:47:46.969Z,0.20
2023-02-19T11:48:46.759Z,0.30
2023-02-19T11:49:46.841Z,0.10
2023-02-19T11:50:46.730Z,2.20
2023-02-19T11:51:52.178Z,0.30
2023-02-19T11:52:47.701Z,0.30
2023-02-19T11:53:49.602Z,0.20
2023-02-19T11:54:46.668Z,0.50
2023-02-19T11:55:46.857Z,0.20
2023-02-19T11:56:46.641Z,0.90
2023-02-19T11:57:46.730Z,0.80
2023-02-19T11:58:46.610Z,0.50
2023-02-19T11:59:47.697Z,1.10
2023-02-19T12:00:46.588Z,0.20
2023-02-19T12:01:46.833Z,0.20
2023-02-19T12:02:46.560Z,0.70
2023-02-19T12:03:46.878Z,0.40
2023-02-19T12:04:46.559Z,1.10
2023-02-19T12:05:46.689Z,1.70
2023-02-19T12:06:46.500Z,0.70
2023-02-19T12:07:46.572Z,0.90
2023-02-19T12:08:46.492Z,0.40
2023-02-19T12:09:46.537Z,0.40
2023-02-19T12:10:46.448Z,0.40
2023-02-19T12:11:47.722Z,2.50
2023-02-19T12:12:46.429Z,1.40
2023-02-19T12:13:46.562Z,0.40
2023-02-19T12:14:46.403Z,0.40
2023-02-19T12:15:46.442Z,0.70
2023-02-19T12:16:46.399Z,0.90
2023-02-19T12:17:46.670Z,1.50
2023-02-19T12:18:46.349Z,3.80
2023-02-19T12:19:46.487Z,0.40
2023-02-19T12:20:46.318Z,0.70
2023-02-19T12:21:46.610Z,0.40
2023-02-19T12:22:46.289Z,0.60
2023-02-19T12:23:47.418Z,2.10
2023-02-19T12:24:46.262Z,0.90
2023-02-19T12:25:46.371Z,0.30
2023-02-19T12:26:46.229Z,0.20
2023-02-19T12:27:46.319Z,0.30
2023-02-19T12:28:46.229Z,0.70
2023-02-19T12:29:46.287Z,0.30
2023-02-19T12:30:46.296Z,0.30
2023-02-19T12:31:46.402Z,0.70
2023-02-19T12:32:46.162Z,0.20
2023-02-19T12:33:46.272Z,0.60
2023-02-19T12:34:46.149Z,0.80
2023-02-19T12:35:46.210Z,0.30
2023-02-19T12:36:46.109Z,0.30
2023-02-19T12:37:49.954Z,0.20
2023-02-19T12:38:46.085Z,0.80
2023-02-19T12:39:46.160Z,0.70
2023-02-19T12:40:46.051Z,0.60
2023-02-19T12:44:13.535Z,10.00
2023-02-19T12:45:13.305Z,11.50
2023-02-19T12:46:13.912Z,0.60
2023-02-19T12:47:13.269Z,1.30
2023-02-19T12:48:13.358Z,1.00
2023-02-19T12:49:13.285Z,0.50
2023-02-19T12:50:13.330Z,1.80
2023-02-19T12:51:13.219Z,2.30
2023-02-19T12:52:14.350Z,1.60
2023-02-19T12:53:13.188Z,0.50
2023-02-19T12:54:13.338Z,1.10
2023-02-19T12:55:13.159Z,1.90
2023-02-19T12:56:13.398Z,5.30
2023-02-19T12:57:13.161Z,1.10
2023-02-19T12:58:13.212Z,0.20
2023-02-19T12:59:13.116Z,0.60
2023-02-19T13:00:13.269Z,0.20
2023-02-19T13:01:13.105Z,1.70
2023-02-19T13:02:13.247Z,0.60
2023-02-19T13:03:13.055Z,0.60
2023-02-19T13:04:13.102Z,0.50
2023-02-19T13:05:13.024Z,0.80
2023-02-19T13:06:14.494Z,1.30
2023-02-19T13:07:13.015Z,1.00
2023-02-19T13:08:13.144Z,0.50
2023-02-19T13:09:12.982Z,0.40
2023-02-19T13:10:14.157Z,0.20
2023-02-19T13:11:13.385Z,0.30
2023-02-19T13:12:13.058Z,0.60
2023-02-19T13:13:12.925Z,1.10
2023-02-19T13:14:13.045Z,1.70
2023-02-19T13:15:12.899Z,1.40
2023-02-19T13:16:13.680Z,1.60
2023-02-19T13:17:12.875Z,4.40
2023-02-19T13:18:12.975Z,1.10
2023-02-19T13:19:12.845Z,0.50
2023-02-19T13:20:12.944Z,0.80
2023-02-19T13:21:13.062Z,1.00
2023-02-19T13:22:12.940Z,0.50
2023-02-19T13:23:12.797Z,4.00
2023-02-19T13:24:12.868Z,0.60
2023-02-19T13:25:12.766Z,0.60